createdAt,value
2022-11-12T00:04:04.038Z,1.90
2022-11-12T00:16:04.462Z,2.01
2022-11-12T00:28:04.913Z,1.78
2022-11-12T00:40:05.373Z,1.72
2022-11-12T00:52:05.830Z,1.49
2022-11-12T01:04:06.276Z,1.48
2022-11-12T01:16:06.716Z,1.39
2022-11-12T01:28:07.162Z,1.16
2022-11-12T01:40:07.677Z,1.12
2022-11-12T01:52:08.072Z,1.05
2022-11-12T02:04:08.547Z,0.61
2022-11-12T02:16:08.958Z,0.71
2022-11-12T02:28:09.451Z,0.93
2022-11-12T02:40:09.877Z,0.93
2022-11-12T02:52:10.318Z,0.80
2022-11-12T03:04:10.778Z,0.76
2022-11-12T03:16:11.243Z,0.91
2022-11-12T03:28:11.658Z,0.90
2022-11-12T03:40:12.137Z,0.93
2022-11-12T03:52:12.593Z,1.19
2022-11-12T04:04:13.020Z,1.08
2022-11-12T04:16:13.481Z,1.41
2022-11-12T04:28:13.919Z,1.30
2022-11-12T04:40:14.393Z,1.21
2022-11-12T04:52:14.875Z,1.24
2022-11-12T05:04:15.320Z,0.82
2022-11-12T05:16:15.733Z,1.15
2022-11-12T05:28:16.190Z,0.99
2022-11-12T05:40:16.690Z,0.96
2022-11-12T05:52:17.119Z,0.59
2022-11-12T06:04:17.571Z,0.82
2022-11-12T06:16:18.014Z,0.91
2022-11-12T06:28:18.523Z,0.95
2022-11-12T06:40:18.913Z,1.26
2022-11-12T06:52:19.358Z,1.34
2022-11-12T07:04:19.825Z,1.12
2022-11-12T07:16:20.291Z,1.38
2022-11-12T07:28:20.717Z,1.88
2022-11-12T07:40:21.144Z,2.45
2022-11-12T07:52:21.581Z,3.11
2022-11-12T08:04:22.094Z,3.71
2022-11-12T08:16:22.532Z,4.43
2022-11-12T08:28:23.079Z,5.69
2022-11-12T08:40:23.426Z,6.99
2022-11-12T08:52:23.879Z,8.53
2022-11-12T09:04:24.333Z,9.51
2022-11-12T09:16:24.800Z,10.87
2022-11-12T09:28:25.578Z,11.28
2022-11-12T09:40:25.705Z,13.76
2022-11-12T09:52:26.175Z,14.33
2022-11-12T10:04:26.601Z,15.43
2022-11-12T10:16:27.054Z,16.86
2022-11-12T10:28:27.888Z,17.00
2022-11-12T10:40:27.993Z,16.31
2022-11-12T10:52:28.424Z,17.37
2022-11-12T11:04:28.886Z,18.27
2022-11-12T11:16:29.364Z,19.98
2022-11-12T11:28:30.042Z,24.44
2022-11-12T11:40:30.281Z,25.17
2022-11-12T11:52:30.656Z,28.34
2022-11-12T12:04:31.176Z,27.77
2022-11-12T12:16:31.610Z,23.27
2022-11-12T12:28:32.042Z,25.66
2022-11-12T12:40:32.535Z,24.25
2022-11-12T12:52:33.005Z,17.50
2022-11-12T13:04:33.443Z,17.19
2022-11-12T13:16:33.868Z,16.35
2022-11-12T13:28:34.305Z,14.81
2022-11-12T13:40:34.818Z,14.33
2022-11-12T13:52:35.286Z,13.92
2022-11-12T14:04:35.706Z,13.29
2022-11-12T14:16:36.173Z,12.22
2022-11-12T14:28:36.667Z,12.41
2022-11-12T14:40:37.049Z,11.43
2022-11-12T14:52:37.531Z,11.10
2022-11-12T15:04:37.982Z,10.36
2022-11-12T15:16:38.458Z,9.60
2022-11-12T15:28:38.881Z,9.70
2022-11-12T15:40:39.341Z,9.04
2022-11-12T15:52:39.775Z,8.87
2022-11-12T16:04:40.273Z,8.01
2022-11-12T16:16:40.719Z,8.11
2022-11-12T16:28:41.175Z,7.84
2022-11-12T16:40:41.641Z,7.39
2022-11-12T16:52:42.100Z,7.20
2022-11-12T17:04:42.531Z,6.85
2022-11-12T17:16:42.951Z,6.54
2022-11-12T17:28:43.398Z,6.29
2022-11-12T17:40:43.896Z,6.03
2022-11-12T17:52:44.308Z,6.05
2022-11-12T18:04:44.760Z,5.69
2022-11-12T18:16:45.205Z,5.46
2022-11-12T18:28:45.726Z,5.37
2022-11-12T18:40:46.102Z,5.42
2022-11-12T18:52:46.608Z,5.14
2022-11-12T19:04:47.045Z,5.07
2022-11-12T19:16:47.484Z,4.79
2022-11-12T19:28:47.936Z,4.62
2022-11-12T19:40:48.372Z,4.59
2022-11-12T19:52:48.860Z,4.28
2022-11-12T20:04:49.351Z,4.15
2022-11-12T20:16:49.760Z,4.12
2022-11-12T20:28:50.266Z,4.02
2022-11-12T20:40:50.634Z,3.58
2022-11-12T20:52:51.102Z,3.63
2022-11-12T21:04:51.563Z,3.97
2022-11-12T21:16:51.979Z,4.12
2022-11-12T21:28:52.476Z,4.23
2022-11-12T21:40:52.924Z,4.31
2022-11-12T21:52:53.363Z,4.39
2022-11-12T22:04:53.849Z,4.75
2022-11-12T22:16:54.250Z,4.76
2022-11-12T22:28:54.760Z,4.57
2022-11-12T22:40:55.192Z,4.54
2022-11-12T22:52:55.623Z,4.42
2022-11-12T23:04:56.085Z,4.63
2022-11-12T23:16:56.538Z,4.15
2022-11-12T23:28:57.001Z,4.19
2022-11-12T23:40:57.457Z,4.09
2022-11-12T23:52:57.860Z,3.92
